Time;durP1;ratioP1;P1;durP2;ratioP2;P2;SDS_P1;SDS_P2;PMS_P1;PMS_P2;Temp;Humidity;BMP_temperature;BMP_pressure;BME280_temperature;BME280_humidity;BME280_pressure;Samples;Min_cycle;Max_cycle;Signal;HPM_P1;HPM_P2
2021/09/03 00:00:33;;;;;;;21.33;15.87;;;14.50;99.90;;;;;;5055042;28;20453;-65
2021/09/03 00:03:00;;;;;;;26.20;17.00;;;14.40;99.90;;;;;;5055366;28;20475;-65
2021/09/03 00:05:26;;;;;;;19.80;15.20;;;14.40;99.90;;;;;;5054782;28;21019;-65
2021/09/03 00:07:53;;;;;;;20.43;16.50;;;14.40;99.90;;;;;;5038160;28;20452;-66
2021/09/03 00:10:21;;;;;;;20.83;17.70;;;14.40;99.90;;;;;;5035003;28;20441;-64
2021/09/03 00:12:48;;;;;;;21.30;16.43;;;14.30;99.90;;;;;;5035175;28;20453;-66
2021/09/03 00:15:17;;;;;;;20.60;16.10;;;14.30;99.90;;;;;;5034618;28;20469;-65
2021/09/03 00:17:44;;;;;;;20.27;15.97;;;14.30;99.90;;;;;;5035233;28;20448;-65
2021/09/03 00:20:12;;;;;;;21.90;17.70;;;14.30;99.90;;;;;;5035675;28;20445;-64
2021/09/03 00:22:39;;;;;;;25.73;17.47;;;14.30;99.90;;;;;;5035546;28;20481;-65
2021/09/03 00:25:08;;;;;;;25.87;17.73;;;14.20;99.90;;;;;;5035444;28;20989;-65
2021/09/03 00:27:38;;;;;;;24.20;18.40;;;14.20;99.90;;;;;;5035131;28;20862;-65
2021/09/03 00:30:06;;;;;;;26.20;19.20;;;14.20;99.90;;;;;;5050089;28;20453;-64
2021/09/03 00:32:34;;;;;;;23.83;17.97;;;14.20;99.90;;;;;;5054824;28;20444;-65
2021/09/03 00:35:01;;;;;;;22.50;17.90;;;14.20;99.90;;;;;;5045427;28;20469;-64
2021/09/03 00:37:27;;;;;;;22.57;17.60;;;14.10;99.90;;;;;;5035830;28;20835;-64
2021/09/03 00:39:54;;;;;;;22.73;17.63;;;14.10;99.90;;;;;;5035936;28;20460;-65
2021/09/03 00:42:21;;;;;;;23.37;18.83;;;14.00;99.90;;;;;;5035167;28;20956;-64
2021/09/03 00:44:48;;;;;;;23.77;17.97;;;14.00;99.90;;;;;;5035742;28;20484;-64
2021/09/03 00:47:15;;;;;;;27.70;18.43;;;14.00;99.90;;;;;;5036104;28;20452;-64
2021/09/03 00:49:43;;;;;;;22.90;17.03;;;14.00;99.90;;;;;;5036049;28;20460;-64
2021/09/03 00:52:11;;;;;;;28.30;20.33;;;13.90;99.90;;;;;;5038352;28;20934;-64
2021/09/03 00:54:37;;;;;;;23.50;18.00;;;13.90;99.90;;;;;;5054626;28;20869;-64
2021/09/03 00:57:05;;;;;;;24.83;16.90;;;13.90;99.90;;;;;;5055472;28;20440;-65
2021/09/03 00:59:32;;;;;;;24.93;19.37;;;13.90;99.90;;;;;;5054891;28;20436;-65
2021/09/03 01:01:59;;;;;;;25.17;19.13;;;13.90;99.90;;;;;;5051904;28;20440;-65
2021/09/03 01:04:25;;;;;;;23.73;18.60;;;13.90;99.90;;;;;;5035070;28;20488;-65
2021/09/03 01:06:54;;;;;;;20.97;17.47;;;13.80;99.90;;;;;;5034998;28;20433;-64
2021/09/03 01:09:20;;;;;;;23.23;19.20;;;13.80;99.90;;;;;;5036076;28;20453;-64
2021/09/03 01:11:47;;;;;;;24.43;18.53;;;13.80;99.90;;;;;;5038252;28;20460;-66
2021/09/03 01:14:14;;;;;;;22.50;17.27;;;13.80;99.90;;;;;;5038445;28;20833;-65
2021/09/03 01:16:41;;;;;;;21.47;15.03;;;13.80;99.90;;;;;;5046080;28;20470;-67
2021/09/03 01:19:08;;;;;;;28.50;20.00;;;13.80;99.90;;;;;;5058413;28;20925;-65
2021/09/03 01:21:35;;;;;;;27.47;19.10;;;13.70;99.90;;;;;;5058139;28;20440;-65
2021/09/03 01:24:03;;;;;;;26.00;19.43;;;13.70;99.90;;;;;;5058045;28;20509;-66
2021/09/03 01:26:30;;;;;;;23.60;17.73;;;13.70;99.90;;;;;;5057879;28;20467;-64
2021/09/03 01:28:56;;;;;;;26.40;17.13;;;13.70;99.90;;;;;;5057729;28;20802;-65
2021/09/03 01:31:23;;;;;;;24.27;17.83;;;13.70;99.90;;;;;;5056810;28;20447;-66
2021/09/03 01:33:54;;;;;;;27.17;18.93;;;13.70;99.90;;;;;;5057268;28;20511;-65
2021/09/03 01:36:26;;;;;;;24.17;17.10;;;13.60;99.90;;;;;;5058062;28;20977;-65
2021/09/03 01:38:53;;;;;;;23.50;17.77;;;13.60;99.90;;;;;;5057161;28;20502;-66
2021/09/03 01:41:21;;;;;;;28.97;18.90;;;13.60;99.90;;;;;;5056975;28;20444;-64
2021/09/03 01:43:48;;;;;;;30.70;18.50;;;13.60;99.90;;;;;;5055381;28;20480;-64
2021/09/03 01:46:15;;;;;;;24.27;17.90;;;13.60;99.90;;;;;;5056811;28;20468;-65
2021/09/03 01:48:41;;;;;;;24.50;17.70;;;13.60;99.90;;;;;;5057247;28;20444;-65
2021/09/03 01:51:08;;;;;;;29.17;19.30;;;13.60;99.90;;;;;;5057559;28;20466;-66
2021/09/03 01:53:35;;;;;;;27.50;18.27;;;13.60;99.90;;;;;;5056813;28;20463;-65
2021/09/03 01:56:01;;;;;;;21.80;17.80;;;13.60;99.90;;;;;;5057087;28;20472;-65
2021/09/03 01:58:29;;;;;;;23.87;18.77;;;13.60;99.90;;;;;;5056486;28;20463;-65
2021/09/03 02:00:56;;;;;;;24.60;19.70;;;13.60;99.90;;;;;;5056505;28;20797;-64
2021/09/03 02:03:23;;;;;;;25.67;18.13;;;13.50;99.90;;;;;;5056177;28;20483;-65
2021/09/03 02:05:50;;;;;;;22.47;17.60;;;13.50;99.90;;;;;;5056319;28;20483;-66
2021/09/03 02:08:16;;;;;;;25.93;17.07;;;13.50;99.90;;;;;;5056510;28;20455;-65
2021/09/03 02:10:43;;;;;;;24.60;17.83;;;13.50;99.90;;;;;;5055001;28;20470;-65
2021/09/03 02:13:10;;;;;;;31.37;18.53;;;13.40;99.90;;;;;;5056010;28;20455;-65
2021/09/03 02:15:38;;;;;;;29.13;17.27;;;13.40;99.90;;;;;;5056700;28;20456;-66
2021/09/03 02:18:04;;;;;;;27.30;17.30;;;13.40;99.90;;;;;;5056823;28;20960;-66
2021/09/03 02:20:31;;;;;;;24.67;18.10;;;13.40;99.90;;;;;;5056275;28;20447;-64
2021/09/03 02:22:58;;;;;;;28.50;18.10;;;13.40;99.90;;;;;;5055994;28;20451;-65
2021/09/03 02:25:24;;;;;;;30.40;17.67;;;13.40;99.90;;;;;;5055909;28;20464;-64
2021/09/03 02:27:51;;;;;;;29.70;18.80;;;13.40;99.90;;;;;;5057475;28;20448;-64
2021/09/03 02:30:18;;;;;;;29.13;16.70;;;13.40;99.90;;;;;;5056713;28;20975;-65
2021/09/03 02:32:46;;;;;;;32.97;18.67;;;13.40;99.90;;;;;;5056622;28;20444;-65
2021/09/03 02:35:13;;;;;;;27.93;19.20;;;13.40;99.90;;;;;;5057605;28;20486;-66
2021/09/03 02:37:40;;;;;;;28.10;21.40;;;13.30;99.90;;;;;;5057522;28;20964;-64
2021/09/03 02:40:11;;;;;;;29.03;20.10;;;13.30;99.90;;;;;;5040473;28;20467;-64
2021/09/03 02:42:38;;;;;;;28.30;19.43;;;13.30;99.90;;;;;;5037636;28;20449;-64
2021/09/03 02:45:06;;;;;;;29.47;21.57;;;13.30;99.90;;;;;;5037844;28;20477;-64
2021/09/03 02:47:34;;;;;;;28.23;21.07;;;13.30;99.90;;;;;;5037108;28;20946;-65
2021/09/03 02:50:02;;;;;;;28.43;19.53;;;13.30;99.90;;;;;;5037967;28;20445;-64
2021/09/03 02:52:28;;;;;;;23.00;19.00;;;13.30;99.90;;;;;;5037720;28;20445;-64
2021/09/03 02:54:55;;;;;;;25.43;17.23;;;13.30;99.90;;;;;;5056014;28;20837;-65
2021/09/03 02:57:22;;;;;;;27.40;19.73;;;13.30;99.90;;;;;;5057436;28;20448;-65
2021/09/03 02:59:49;;;;;;;24.60;18.03;;;13.20;99.90;;;;;;5057041;28;20448;-65
2021/09/03 03:02:15;;;;;;;27.33;17.87;;;13.20;99.90;;;;;;5057116;28;20452;-66
2021/09/03 03:04:42;;;;;;;27.77;17.57;;;13.20;99.90;;;;;;5056671;28;20483;-64
2021/09/03 03:07:10;;;;;;;30.33;19.93;;;13.20;99.90;;;;;;5047394;28;20449;-65
2021/09/03 03:09:36;;;;;;;24.83;19.50;;;13.10;99.90;;;;;;5037044;28;20806;-66
2021/09/03 03:12:04;;;;;;;31.33;20.70;;;13.10;99.90;;;;;;5037142;28;20874;-64
2021/09/03 03:14:33;;;;;;;31.83;19.63;;;13.10;99.90;;;;;;5038734;28;20447;-65
2021/09/03 03:17:01;;;;;;;36.50;22.67;;;13.10;99.90;;;;;;5057049;28;20498;-66
2021/09/03 03:19:28;;;;;;;33.53;22.23;;;13.10;99.90;;;;;;5055528;28;20459;-64
2021/09/03 03:22:04;;;;;;;23.63;18.93;;;13.00;99.90;;;;;;5037511;28;20437;-67
2021/09/03 03:24:32;;;;;;;22.03;17.10;;;13.00;99.90;;;;;;5034161;28;20492;-66
2021/09/03 03:26:59;;;;;;;28.60;20.30;;;13.00;99.90;;;;;;5034411;28;20442;-67
2021/09/03 03:29:26;;;;;;;28.47;19.37;;;12.90;99.90;;;;;;5034631;28;20471;-65
2021/09/03 03:31:52;;;;;;;30.63;20.67;;;12.90;99.90;;;;;;5035227;28;20449;-65
2021/09/03 03:34:19;;;;;;;29.03;20.87;;;12.90;99.90;;;;;;5036738;28;20441;-65
2021/09/03 03:36:46;;;;;;;29.73;20.87;;;12.90;99.90;;;;;;5037080;28;20869;-66
2021/09/03 03:39:13;;;;;;;22.97;19.90;;;12.90;99.90;;;;;;5037436;28;20449;-66
2021/09/03 03:41:41;;;;;;;26.87;19.43;;;12.90;99.90;;;;;;5037212;28;20438;-66
2021/09/03 03:44:08;;;;;;;32.00;19.17;;;12.80;99.90;;;;;;5034946;28;20485;-66
2021/09/03 03:46:34;;;;;;;28.00;18.47;;;12.80;99.90;;;;;;5033555;28;20500;-66
2021/09/03 03:49:01;;;;;;;36.33;21.73;;;12.80;99.90;;;;;;5042727;28;20451;-66
2021/09/03 03:51:29;;;;;;;25.87;19.93;;;12.80;99.90;;;;;;5054741;28;20440;-65
2021/09/03 03:53:56;;;;;;;27.23;18.63;;;12.80;99.90;;;;;;5056710;28;20867;-66
2021/09/03 03:56:22;;;;;;;24.30;17.90;;;12.80;99.90;;;;;;5055712;28;20469;-66
2021/09/03 03:58:50;;;;;;;29.87;21.60;;;12.80;99.90;;;;;;5055983;28;20443;-66
2021/09/03 04:01:17;;;;;;;25.43;19.30;;;12.80;99.90;;;;;;5055927;28;20444;-65
2021/09/03 04:03:44;;;;;;;28.17;18.17;;;12.80;99.90;;;;;;5039910;28;20484;-65
2021/09/03 04:06:10;;;;;;;28.63;18.30;;;12.80;99.90;;;;;;5037790;22;20500;-69
2021/09/03 04:08:37;;;;;;;24.00;17.80;;;12.80;99.90;;;;;;5011693;28;20958;-69
2021/09/03 04:11:04;;;;;;;26.50;19.10;;;12.70;99.90;;;;;;5011658;28;20450;-68
2021/09/03 04:13:31;;;;;;;26.40;20.27;;;12.80;99.90;;;;;;5011741;28;20445;-69
2021/09/03 04:15:59;;;;;;;28.10;19.83;;;12.70;99.90;;;;;;5011414;28;20462;-70
2021/09/03 04:18:26;;;;;;;31.10;21.93;;;12.70;99.90;;;;;;5011574;28;20453;-69
2021/09/03 04:20:52;;;;;;;25.10;19.30;;;12.70;99.90;;;;;;5011450;28;20457;-67
2021/09/03 04:23:19;;;;;;;28.70;19.07;;;12.70;99.90;;;;;;5011399;28;20821;-69
2021/09/03 04:25:46;;;;;;;31.03;23.20;;;12.70;99.90;;;;;;5011271;28;20584;-69
2021/09/03 04:28:12;;;;;;;34.00;20.93;;;12.60;99.90;;;;;;5011694;28;21157;-69
2021/09/03 04:30:39;;;;;;;27.17;19.90;;;12.60;99.90;;;;;;5011029;28;20946;-69
2021/09/03 04:33:07;;;;;;;29.80;18.37;;;12.60;99.90;;;;;;5011333;28;20446;-68
2021/09/03 04:35:34;;;;;;;30.27;21.40;;;12.60;99.90;;;;;;5011370;28;20465;-69
2021/09/03 04:38:01;;;;;;;26.03;18.63;;;12.60;99.90;;;;;;5010939;28;20450;-70
2021/09/03 04:40:27;;;;;;;28.83;18.23;;;12.50;99.90;;;;;;5011033;28;20450;-69
2021/09/03 04:42:54;;;;;;;22.30;18.03;;;12.50;99.90;;;;;;5010736;28;20446;-69
2021/09/03 04:45:21;;;;;;;30.20;20.67;;;12.50;99.90;;;;;;5014253;28;21009;-69
2021/09/03 04:47:48;;;;;;;29.83;21.17;;;12.50;99.90;;;;;;5015278;28;20468;-68
2021/09/03 04:50:16;;;;;;;29.43;18.53;;;12.50;99.90;;;;;;5015150;28;20453;-69
2021/09/03 04:52:44;;;;;;;25.90;20.47;;;12.50;99.90;;;;;;5014966;28;20814;-69
2021/09/03 04:55:11;;;;;;;29.33;19.57;;;12.50;99.90;;;;;;5015163;28;20462;-68
2021/09/03 04:57:42;;;;;;;29.20;21.43;;;12.50;99.90;;;;;;5015309;28;20500;-69
2021/09/03 05:00:11;;;;;;;31.10;18.60;;;12.50;99.90;;;;;;5015090;28;20478;-69
2021/09/03 05:02:38;;;;;;;27.10;18.83;;;12.50;99.90;;;;;;5014977;28;20517;-69
2021/09/03 05:05:05;;;;;;;28.00;19.40;;;12.50;99.90;;;;;;5014843;28;20500;-68
2021/09/03 05:07:33;;;;;;;21.87;16.50;;;12.60;99.90;;;;;;5015102;28;20442;-68
2021/09/03 05:10:00;;;;;;;24.90;17.10;;;12.60;99.90;;;;;;5014963;28;20454;-69
2021/09/03 05:12:27;;;;;;;29.50;18.80;;;12.60;99.90;;;;;;5014557;28;20453;-68
2021/09/03 05:14:54;;;;;;;28.70;20.20;;;12.70;99.90;;;;;;5014782;28;20446;-69
2021/09/03 05:17:22;;;;;;;25.73;18.07;;;12.70;99.90;;;;;;5014778;28;20446;-67
2021/09/03 05:19:48;;;;;;;27.60;20.13;;;12.70;99.90;;;;;;5014919;28;20446;-68
2021/09/03 05:22:15;;;;;;;30.87;19.50;;;12.70;99.90;;;;;;5014189;28;20445;-68
2021/09/03 05:24:43;;;;;;;28.13;17.90;;;12.80;99.90;;;;;;5014622;28;20486;-68
2021/09/03 05:27:10;;;;;;;26.37;18.70;;;12.80;99.90;;;;;;5014592;28;20442;-68
2021/09/03 05:29:36;;;;;;;27.73;18.70;;;12.90;99.90;;;;;;5014680;28;20446;-69
2021/09/03 05:32:03;;;;;;;31.50;20.13;;;12.90;99.90;;;;;;5014490;28;20454;-69
2021/09/03 05:34:30;;;;;;;29.43;20.80;;;13.00;99.90;;;;;;5014442;28;20446;-68
2021/09/03 05:36:57;;;;;;;24.07;18.90;;;13.10;99.90;;;;;;5014423;28;20561;-69
2021/09/03 05:39:23;;;;;;;21.10;17.07;;;13.20;99.90;;;;;;5014370;28;20453;-69
2021/09/03 05:41:52;;;;;;;26.43;17.77;;;13.30;99.90;;;;;;5014135;28;20912;-69
2021/09/03 05:44:18;;;;;;;22.77;17.47;;;13.30;99.90;;;;;;5014179;28;20484;-68
2021/09/03 05:46:45;;;;;;;24.97;18.00;;;13.40;99.90;;;;;;5014352;28;20465;-69
2021/09/03 05:49:12;;;;;;;24.33;17.90;;;13.40;99.90;;;;;;5014201;28;20450;-69
2021/09/03 05:51:38;;;;;;;29.30;18.57;;;13.50;99.90;;;;;;5013985;28;20465;-68
2021/09/03 05:54:08;;;;;;;23.97;18.13;;;13.60;99.90;;;;;;5014334;28;20457;-69
2021/09/03 05:56:35;;;;;;;30.73;18.17;;;13.60;99.90;;;;;;5013378;28;20473;-68
2021/09/03 05:59:03;;;;;;;27.17;18.67;;;13.70;99.90;;;;;;5013994;28;20496;-68
2021/09/03 06:01:30;;;;;;;33.77;20.87;;;13.80;99.90;;;;;;5013798;28;20454;-69
2021/09/03 06:03:57;;;;;;;28.33;19.97;;;13.90;99.90;;;;;;5014043;28;20957;-68
2021/09/03 06:06:24;;;;;;;27.80;19.97;;;13.90;99.90;;;;;;5013871;28;20470;-69
2021/09/03 06:08:52;;;;;;;30.90;19.50;;;14.00;99.90;;;;;;5013921;28;20790;-69
2021/09/03 06:11:20;;;;;;;27.23;20.17;;;14.10;99.90;;;;;;5013664;28;20481;-68
2021/09/03 06:13:47;;;;;;;27.00;20.73;;;14.20;99.90;;;;;;5013930;28;20870;-67
2021/09/03 06:16:15;;;;;;;24.10;20.10;;;14.30;99.90;;;;;;5013488;28;20464;-68
2021/09/03 06:18:42;;;;;;;24.30;18.40;;;14.40;99.90;;;;;;5013781;28;20446;-68
2021/09/03 06:21:09;;;;;;;27.70;22.90;;;14.40;99.90;;;;;;5013524;28;20442;-68
2021/09/03 06:23:36;;;;;;;24.23;20.07;;;14.60;99.90;;;;;;5013645;28;20446;-67
2021/09/03 06:26:03;;;;;;;20.90;17.63;;;14.60;99.90;;;;;;5013357;28;20489;-68
2021/09/03 06:28:29;;;;;;;24.20;20.70;;;14.70;99.90;;;;;;5013402;28;20442;-69
2021/09/03 06:30:56;;;;;;;22.67;20.20;;;14.90;99.90;;;;;;5013211;28;20447;-66
2021/09/03 06:33:24;;;;;;;24.90;19.37;;;14.90;99.90;;;;;;5013453;28;20456;-67
2021/09/03 06:35:51;;;;;;;25.13;20.77;;;15.00;99.90;;;;;;5013233;28;20462;-68
2021/09/03 06:38:18;;;;;;;23.43;20.17;;;15.20;99.90;;;;;;5013318;28;20446;-68
2021/09/03 06:40:44;;;;;;;24.53;22.07;;;15.20;99.90;;;;;;5013289;28;20808;-68
2021/09/03 06:43:11;;;;;;;23.40;21.00;;;15.30;99.90;;;;;;5012919;28;20449;-68
2021/09/03 06:45:38;;;;;;;23.00;20.63;;;15.40;99.90;;;;;;5013080;28;20858;-68
2021/09/03 06:48:05;;;;;;;23.50;21.00;;;15.50;99.90;;;;;;5013060;28;20446;-67
2021/09/03 06:50:33;;;;;;;20.77;18.30;;;15.60;99.90;;;;;;5013053;28;20445;-68
2021/09/03 06:53:00;;;;;;;21.37;19.20;;;15.70;99.90;;;;;;5012779;28;20936;-68
2021/09/03 06:55:27;;;;;;;22.37;19.97;;;15.70;99.90;;;;;;5012961;28;20538;-68
2021/09/03 06:57:53;;;;;;;22.07;19.43;;;15.80;99.90;;;;;;5012944;28;20446;-66
2021/09/03 07:00:20;;;;;;;21.00;17.07;;;15.90;99.90;;;;;;5012860;28;20468;-69
2021/09/03 07:02:47;;;;;;;18.33;16.50;;;16.00;99.90;;;;;;5012578;28;20457;-66
2021/09/03 07:05:13;;;;;;;20.67;18.57;;;16.10;99.90;;;;;;5012111;28;20493;-66
2021/09/03 07:07:41;;;;;;;21.13;16.77;;;16.20;99.90;;;;;;5011822;28;20449;-67
2021/09/03 07:10:09;;;;;;;19.70;16.97;;;16.20;99.90;;;;;;5012657;28;20444;-68
2021/09/03 07:12:36;;;;;;;23.93;18.97;;;16.30;99.90;;;;;;5012372;28;20806;-66
2021/09/03 07:15:02;;;;;;;19.23;17.30;;;16.40;99.90;;;;;;5012599;28;20438;-70
2021/09/03 07:17:29;;;;;;;18.27;16.37;;;16.50;99.90;;;;;;5012535;28;20450;-70
2021/09/03 07:19:56;;;;;;;18.93;17.03;;;16.60;99.90;;;;;;5012501;28;20457;-65
2021/09/03 07:22:22;;;;;;;19.03;17.13;;;16.70;99.90;;;;;;5012205;28;20453;-67
2021/09/03 07:24:50;;;;;;;18.07;16.27;;;16.80;99.90;;;;;;5012416;28;20501;-69
2021/09/03 07:27:17;;;;;;;18.93;17.20;;;16.90;99.90;;;;;;5012385;28;20939;-68
2021/09/03 07:29:44;;;;;;;16.27;14.57;;;17.00;99.90;;;;;;5012411;28;20816;-68
2021/09/03 07:32:10;;;;;;;15.20;13.47;;;17.10;99.90;;;;;;5012069;28;20442;-66
2021/09/03 07:34:37;;;;;;;21.33;16.03;;;17.10;99.90;;;;;;5012318;28;20866;-67
2021/09/03 07:37:04;;;;;;;17.47;15.60;;;17.20;99.90;;;;;;5012288;28;20477;-68
2021/09/03 07:39:31;;;;;;;20.00;17.47;;;17.40;99.90;;;;;;5012123;28;20939;-67
2021/09/03 07:41:59;;;;;;;15.97;14.37;;;17.40;99.90;;;;;;5012042;28;20450;-67
2021/09/03 07:44:26;;;;;;;16.47;14.83;;;17.50;99.90;;;;;;5012173;28;20445;-68
2021/09/03 07:46:53;;;;;;;17.67;15.97;;;17.60;99.90;;;;;;5012016;28;20882;-68
2021/09/03 07:49:19;;;;;;;17.50;15.70;;;17.70;99.90;;;;;;5012068;28;20776;-68
2021/09/03 07:51:46;;;;;;;16.03;14.53;;;17.80;99.90;;;;;;5011850;28;20446;-68
2021/09/03 07:54:13;;;;;;;17.17;15.63;;;17.90;99.90;;;;;;5012100;28;20446;-68
2021/09/03 07:56:39;;;;;;;17.83;16.00;;;18.00;99.90;;;;;;5011933;28;20462;-66
2021/09/03 07:59:07;;;;;;;16.23;14.63;;;18.10;99.90;;;;;;5012083;28;20974;-68
2021/09/03 08:01:34;;;;;;;16.03;14.50;;;18.20;99.90;;;;;;5011780;28;20450;-68
2021/09/03 08:04:01;;;;;;;16.00;14.50;;;18.30;99.90;;;;;;5011981;28;20457;-67
2021/09/03 08:06:27;;;;;;;16.50;15.00;;;18.30;99.90;;;;;;5011631;28;20502;-68
2021/09/03 08:08:54;;;;;;;16.00;14.43;;;18.40;99.90;;;;;;5011930;28;20444;-67
2021/09/03 08:11:21;;;;;;;17.20;15.60;;;18.50;99.90;;;;;;5011733;28;20454;-68
2021/09/03 08:13:48;;;;;;;19.63;16.27;;;18.60;99.90;;;;;;5012003;28;20809;-67
2021/09/03 08:16:16;;;;;;;15.80;14.40;;;18.70;99.90;;;;;;5011714;28;20824;-68
2021/09/03 08:18:43;;;;;;;17.17;15.53;;;18.80;99.90;;;;;;5013630;28;20448;-68
2021/09/03 08:21:10;;;;;;;17.33;15.43;;;18.80;99.90;;;;;;5015635;28;20438;-68
2021/09/03 08:23:36;;;;;;;16.50;15.00;;;19.00;99.90;;;;;;5015782;28;20966;-66
2021/09/03 08:26:03;;;;;;;16.37;14.77;;;19.10;99.90;;;;;;5015766;28;20874;-67
2021/09/03 08:28:30;;;;;;;16.97;15.37;;;19.30;99.90;;;;;;5015669;28;20891;-68
2021/09/03 08:30:57;;;;;;;17.10;15.27;;;19.40;99.90;;;;;;5015405;28;21176;-65
2021/09/03 08:33:25;;;;;;;17.03;15.63;;;19.60;99.90;;;;;;5015620;28;20456;-67
2021/09/03 08:35:51;;;;;;;18.43;16.53;;;19.70;99.90;;;;;;5015292;28;20563;-67
2021/09/03 08:38:18;;;;;;;16.40;14.80;;;19.80;99.90;;;;;;5015611;28;20457;-67
2021/09/03 08:40:45;;;;;;;16.80;15.50;;;19.90;99.90;;;;;;5015498;28;20565;-67
2021/09/03 08:43:12;;;;;;;15.37;14.27;;;19.90;99.90;;;;;;5015193;28;20442;-67
2021/09/03 08:45:40;;;;;;;17.60;16.10;;;20.00;99.90;;;;;;5015213;28;20485;-67
2021/09/03 08:48:08;;;;;;;17.43;16.03;;;20.20;99.90;;;;;;5015350;28;20452;-68
2021/09/03 08:50:37;;;;;;;16.53;15.33;;;20.30;99.90;;;;;;5015237;28;20503;-68
2021/09/03 08:53:03;;;;;;;16.70;15.50;;;20.40;99.90;;;;;;5015127;28;20446;-68
2021/09/03 08:55:31;;;;;;;21.43;17.90;;;20.50;99.90;;;;;;5015053;28;20466;-68
2021/09/03 08:57:57;;;;;;;17.60;16.43;;;20.60;99.90;;;;;;5015368;28;20449;-68
2021/09/03 09:00:27;;;;;;;18.27;17.00;;;20.70;99.90;;;;;;5015172;28;20449;-67
2021/09/03 09:03:06;;;;;;;19.50;18.10;;;20.80;99.90;;;;;;5015005;28;20442;-68
2021/09/03 09:05:52;;;;;;;19.87;18.57;;;20.90;99.90;;;;;;5014733;28;21018;-67
2021/09/03 09:08:20;;;;;;;19.40;18.00;;;21.00;99.90;;;;;;5015133;28;20951;-67
2021/09/03 09:10:48;;;;;;;20.50;18.90;;;21.10;99.90;;;;;;5015127;28;20464;-71
2021/09/03 09:13:17;;;;;;;20.03;18.53;;;21.20;99.90;;;;;;5014755;28;20821;-67
2021/09/03 09:15:56;;;;;;;20.37;18.90;;;21.30;99.90;;;;;;5014808;28;20465;-68
2021/09/03 09:18:36;;;;;;;21.37;19.87;;;21.30;99.90;;;;;;5014951;28;20453;-67
2021/09/03 09:21:15;;;;;;;20.77;19.27;;;21.30;99.90;;;;;;5014806;28;20457;-68
2021/09/03 09:23:45;;;;;;;20.43;19.03;;;21.40;99.90;;;;;;5014721;28;20446;-68
2021/09/03 09:26:13;;;;;;;21.20;19.90;;;21.60;99.90;;;;;;5014594;28;20486;-68
2021/09/03 09:28:40;;;;;;;21.23;19.33;;;21.70;99.90;;;;;;5014642;28;20448;-67
2021/09/03 09:31:07;;;;;;;22.30;20.60;;;21.80;99.90;;;;;;5013309;28;20442;-68
2021/09/03 09:33:35;;;;;;;22.27;20.57;;;21.80;99.90;;;;;;5014455;28;20452;-67
2021/09/03 09:36:03;;;;;;;20.07;18.77;;;21.90;99.90;;;;;;5014486;28;20465;-67
2021/09/03 09:38:33;;;;;;;20.00;18.73;;;21.70;99.90;;;;;;5014324;28;20446;-67
2021/09/03 09:41:02;;;;;;;20.53;19.30;;;22.00;99.90;;;;;;5014164;28;20441;-67
2021/09/03 09:43:35;;;;;;;21.40;20.00;;;22.20;99.90;;;;;;5014424;28;20516;-68
2021/09/03 09:46:24;;;;;;;20.27;19.07;;;22.40;99.90;;;;;;5014221;28;21173;-68
2021/09/03 09:49:10;;;;;;;21.70;20.17;;;22.50;99.90;;;;;;5009997;28;20457;-68
2021/09/03 09:51:49;;;;;;;21.17;19.83;;;22.50;99.90;;;;;;5014054;28;20442;-68
2021/09/03 09:54:19;;;;;;;21.27;19.97;;;22.50;99.90;;;;;;5014217;28;20466;-68
2021/09/03 09:56:49;;;;;;;22.80;21.17;;;22.80;99.90;;;;;;5013677;28;20469;-68
2021/09/03 09:59:18;;;;;;;21.53;20.30;;;22.90;99.90;;;;;;5013605;28;20450;-69
2021/09/03 10:01:46;;;;;;;22.30;20.80;;;22.90;99.90;;;;;;5013463;28;20469;-69
2021/09/03 10:04:15;;;;;;;23.27;21.83;;;23.00;99.90;;;;;;5013916;28;20450;-67
2021/09/03 10:06:43;;;;;;;24.60;23.10;;;23.20;99.90;;;;;;5050043;22;20493;-64
2021/09/03 10:09:12;;;;;;;22.10;20.80;;;23.30;99.90;;;;;;5032422;28;20453;-64
2021/09/03 10:11:43;;;;;;;25.30;23.47;;;23.50;99.90;;;;;;5033436;28;20452;-65
2021/09/03 10:14:11;;;;;;;24.07;22.57;;;23.50;99.90;;;;;;5033464;28;20638;-65
2021/09/03 10:16:38;;;;;;;22.80;21.33;;;23.30;99.90;;;;;;5033440;28;20814;-65
2021/09/03 10:19:06;;;;;;;22.70;21.50;;;23.50;99.90;;;;;;5052618;28;20449;-63
2021/09/03 10:21:37;;;;;;;22.37;21.17;;;23.70;99.90;;;;;;5053194;28;20842;-64
2021/09/03 10:24:08;;;;;;;22.47;21.27;;;23.70;99.90;;;;;;5053311;28;20819;-65
2021/09/03 10:26:36;;;;;;;22.60;21.50;;;23.80;99.90;;;;;;5053039;28;20480;-65
2021/09/03 10:29:27;;;;;;;22.57;21.30;;;24.30;99.90;;;;;;5034182;28;20485;-65
2021/09/03 10:32:25;;;;;;;23.77;22.47;;;24.70;99.90;;;;;;5033038;28;20448;-65
2021/09/03 10:35:01;;;;;;;23.60;22.30;;;25.00;99.90;;;;;;5033187;28;20452;-62
2021/09/03 10:37:34;;;;;;;24.13;22.43;;;25.10;99.90;;;;;;5038381;28;20863;-64
2021/09/03 10:40:04;;;;;;;24.30;22.90;;;25.30;98.40;;;;;;5052954;28;20447;-65
2021/09/03 10:42:59;;;;;;;24.60;23.27;;;25.40;97.30;;;;;;5052492;28;20534;-64
2021/09/03 10:45:34;;;;;;;24.30;22.90;;;25.40;97.60;;;;;;5052821;28;20448;-64
2021/09/03 10:48:13;;;;;;;22.80;21.60;;;25.60;97.60;;;;;;5042904;28;20811;-64
2021/09/03 10:50:51;;;;;;;25.20;23.80;;;25.70;96.40;;;;;;5032879;28;20787;-64
2021/09/03 10:53:26;;;;;;;24.07;22.77;;;25.60;95.80;;;;;;5032665;28;20445;-64
2021/09/03 10:56:00;;;;;;;24.83;23.53;;;26.10;94.80;;;;;;5032461;28;20468;-65
2021/09/03 10:58:42;;;;;;;24.87;23.57;;;26.40;93.50;;;;;;5050126;28;20447;-64
2021/09/03 11:01:33;;;;;;;24.37;23.10;;;26.70;93.00;;;;;;5052481;28;20944;-63
2021/09/03 11:04:02;;;;;;;26.20;24.83;;;27.10;91.90;;;;;;5052644;28;20444;-63
2021/09/03 11:06:32;;;;;;;24.87;23.67;;;27.40;88.00;;;;;;5051781;28;20484;-63
2021/09/03 11:09:00;;;;;;;26.63;25.07;;;27.90;81.30;;;;;;5052473;28;20444;-64
2021/09/03 11:11:28;;;;;;;24.37;23.23;;;27.70;78.20;;;;;;5052108;28;20444;-64
2021/09/03 11:13:57;;;;;;;25.87;24.47;;;28.20;73.30;;;;;;5052312;28;20450;-62
2021/09/03 11:16:36;;;;;;;26.93;25.37;;;28.90;65.40;;;;;;5052359;28;20498;-63
2021/09/03 11:19:08;;;;;;;25.47;24.33;;;29.50;60.40;;;;;;5052314;28;20490;-64
2021/09/03 11:21:37;;;;;;;25.57;24.17;;;30.10;58.90;;;;;;5052027;28;20444;-63
2021/09/03 11:24:05;;;;;;;26.77;25.07;;;31.20;55.80;;;;;;5052280;28;20444;-63
2021/09/03 11:26:34;;;;;;;27.03;25.60;;;32.00;54.20;;;;;;5051893;28;21113;-63
2021/09/03 11:29:03;;;;;;;26.92;25.52;;;32.10;52.10;;;;;;5052099;28;20617;-64
2021/09/03 11:31:33;;;;;;;26.98;25.60;;;33.30;49.90;;;;;;5051789;28;20308;-65
2021/09/03 11:34:06;;;;;;;26.40;25.02;;;34.70;48.00;;;;;;5052160;28;20813;-62
2021/09/03 11:36:46;;;;;;;26.17;24.90;;;35.80;45.80;;;;;;5052036;28;20217;-64
2021/09/03 11:39:15;;;;;;;26.50;25.23;;;36.90;42.10;;;;;;5051999;28;20696;-64
2021/09/03 11:41:48;;;;;;;26.45;25.15;;;37.60;40.60;;;;;;5051483;28;20751;-64
2021/09/03 11:44:14;;;;;;;27.83;26.63;;;39.60;38.30;;;;;;5051916;28;20205;-64
2021/09/03 11:46:41;;;;;;;28.10;26.67;;;41.30;35.80;;;;;;5051531;28;20586;-65
2021/09/03 11:49:10;;;;;;;27.35;26.08;;;42.90;32.50;;;;;;5051844;28;20216;-65
2021/09/03 11:51:37;;;;;;;27.20;26.00;;;44.30;30.00;;;;;;5051370;28;20201;-65
2021/09/03 11:54:04;;;;;;;27.98;26.63;;;45.50;28.80;;;;;;5051237;28;20209;-64
2021/09/03 11:56:30;;;;;;;27.30;25.95;;;46.00;27.70;;;;;;5051536;28;20228;-63
2021/09/03 11:59:05;;;;;;;26.05;24.90;;;46.30;27.10;;;;;;5051726;28;20587;-64
2021/09/03 12:01:32;;;;;;;26.38;25.13;;;46.80;26.00;;;;;;5051455;28;20209;-65
2021/09/03 12:04:07;;;;;;;27.13;25.92;;;47.90;24.90;;;;;;5051485;28;20658;-64
2021/09/03 12:06:36;;;;;;;25.27;24.27;;;48.00;24.60;;;;;;5051263;28;20224;-64
2021/09/03 12:09:05;;;;;;;25.73;24.73;;;49.00;24.40;;;;;;5051628;28;20205;-64
2021/09/03 12:11:34;;;;;;;25.55;24.55;;;49.90;23.60;;;;;;5051240;28;20288;-66
2021/09/03 12:14:01;;;;;;;25.63;24.60;;;50.10;23.10;;;;;;5051497;28;20205;-62
2021/09/03 12:16:30;;;;;;;26.13;25.13;;;50.20;22.50;;;;;;5051432;28;20217;-62
2021/09/03 12:18:59;;;;;;;25.58;24.55;;;50.80;21.90;;;;;;5051431;28;20573;-65
2021/09/03 12:21:28;;;;;;;26.02;25.02;;;51.30;21.80;;;;;;5051386;28;20201;-62
2021/09/03 12:24:00;;;;;;;24.17;23.27;;;52.20;21.30;;;;;;5051373;28;20965;-63
2021/09/03 12:26:38;;;;;;;25.92;24.85;;;52.70;20.80;;;;;;5051221;28;20225;-63
2021/09/03 12:29:09;;;;;;;26.08;24.98;;;53.50;20.70;;;;;;5051423;28;20201;-63
2021/09/03 12:31:36;;;;;;;24.63;23.63;;;53.60;20.20;;;;;;5051139;28;20220;-62
2021/09/03 12:34:07;;;;;;;26.23;25.08;;;54.00;19.80;;;;;;5051383;28;20205;-63